Time;durP1;ratioP1;P1;durP2;ratioP2;P2;SDS_P1;SDS_P2;PMS_P1;PMS_P2;Temp;Humidity;BMP_temperature;BMP_pressure;BME280_temperature;BME280_humidity;BME280_pressure;Samples;Min_cycle;Max_cycle;Signal;HPM_P1;HPM_P2
2021/01/03 00:00:34;;;;;;;36.83;13.55;;;4.60;99.90;;;;;;5087049;28;20031;-72
2021/01/03 00:03:01;;;;;;;42.08;15.40;;;4.60;99.90;;;;;;5086561;28;20102;-73
2021/01/03 00:05:31;;;;;;;38.65;13.57;;;4.60;99.90;;;;;;5085573;28;20364;-73
2021/01/03 00:07:57;;;;;;;44.25;14.70;;;4.60;99.90;;;;;;5081342;28;20572;-73
2021/01/03 00:10:27;;;;;;;46.45;15.45;;;4.60;99.90;;;;;;5099337;28;20027;-73
2021/01/03 00:12:52;;;;;;;50.58;16.00;;;4.60;99.90;;;;;;5098760;28;20028;-73
2021/01/03 00:15:21;;;;;;;45.88;14.98;;;4.50;99.90;;;;;;5081131;28;20035;-73
2021/01/03 00:17:47;;;;;;;38.83;12.88;;;4.50;99.90;;;;;;5098452;28;20023;-72
2021/01/03 00:20:16;;;;;;;38.15;12.80;;;4.50;99.90;;;;;;5081071;28;20118;-73
2021/01/03 00:22:42;;;;;;;41.20;12.55;;;4.50;99.90;;;;;;5098845;28;20032;-73
2021/01/03 00:25:09;;;;;;;39.10;12.93;;;4.50;99.90;;;;;;5098942;28;20021;-73
2021/01/03 00:27:35;;;;;;;35.10;11.30;;;4.50;99.90;;;;;;5098768;28;20102;-73
2021/01/03 00:30:01;;;;;;;31.83;10.13;;;4.40;99.90;;;;;;5080784;28;20031;-73
2021/01/03 00:32:26;;;;;;;39.17;11.25;;;4.40;99.90;;;;;;5098727;28;20024;-73
2021/01/03 00:34:52;;;;;;;35.40;11.38;;;4.40;99.90;;;;;;5099294;28;20392;-72
2021/01/03 00:37:21;;;;;;;33.50;10.50;;;4.40;99.90;;;;;;5099010;28;20028;-72
2021/01/03 00:39:50;;;;;;;37.35;11.85;;;4.40;99.90;;;;;;5098037;28;20487;-72
2021/01/03 00:42:18;;;;;;;40.20;11.98;;;4.30;99.90;;;;;;5097300;28;20044;-73
2021/01/03 00:44:43;;;;;;;28.42;10.35;;;4.30;99.90;;;;;;5079609;28;20053;-73
2021/01/03 00:47:09;;;;;;;37.63;11.60;;;4.30;99.90;;;;;;5079690;28;20106;-73
2021/01/03 00:49:35;;;;;;;38.85;10.10;;;4.30;99.90;;;;;;5098007;28;20023;-72
2021/01/03 00:52:01;;;;;;;40.38;12.82;;;4.30;99.90;;;;;;5100144;28;20020;-73
2021/01/03 00:54:26;;;;;;;38.30;12.85;;;4.30;99.90;;;;;;5080597;28;20024;-72
2021/01/03 00:56:52;;;;;;;38.38;12.70;;;4.30;99.90;;;;;;5097600;28;20425;-72
2021/01/03 00:59:18;;;;;;;44.13;13.32;;;4.30;99.90;;;;;;5079184;28;20028;-73
2021/01/03 01:01:43;;;;;;;32.58;11.20;;;4.20;99.90;;;;;;5080536;28;20024;-73
2021/01/03 01:04:12;;;;;;;34.20;12.13;;;4.20;99.90;;;;;;5099115;28;20467;-73
2021/01/03 01:06:38;;;;;;;38.60;12.20;;;4.20;99.90;;;;;;5079669;28;20024;-73
2021/01/03 01:09:04;;;;;;;33.22;11.27;;;4.20;99.90;;;;;;5080993;28;20020;-72
2021/01/03 01:11:30;;;;;;;33.92;11.65;;;4.20;99.90;;;;;;5079126;28;20032;-73
2021/01/03 01:13:56;;;;;;;37.50;12.68;;;4.10;99.90;;;;;;5096819;28;20024;-73
2021/01/03 01:16:22;;;;;;;37.22;11.80;;;4.10;99.90;;;;;;5078307;28;20109;-72
2021/01/03 01:18:47;;;;;;;36.08;11.68;;;4.10;99.90;;;;;;5097032;28;20083;-73
2021/01/03 01:21:15;;;;;;;37.22;11.50;;;4.10;99.90;;;;;;5078250;28;20020;-73
2021/01/03 01:23:41;;;;;;;41.55;12.18;;;4.10;99.90;;;;;;5078970;28;20024;-73
2021/01/03 01:26:06;;;;;;;33.00;11.63;;;4.00;99.90;;;;;;5096754;28;20024;-72
2021/01/03 01:28:32;;;;;;;33.45;11.38;;;4.00;99.90;;;;;;5078386;28;20071;-73
2021/01/03 01:30:58;;;;;;;28.75;10.80;;;4.00;99.90;;;;;;5096604;28;20120;-73
2021/01/03 01:33:24;;;;;;;34.85;10.80;;;4.00;99.90;;;;;;5079921;28;20024;-72
2021/01/03 01:35:50;;;;;;;37.33;12.32;;;3.90;99.90;;;;;;5081318;28;20027;-73
2021/01/03 01:38:16;;;;;;;31.27;11.27;;;3.90;99.90;;;;;;5096950;28;20020;-73
2021/01/03 01:40:42;;;;;;;29.00;9.70;;;3.90;99.90;;;;;;5149295;22;20043;-73
2021/01/03 01:43:12;;;;;;;29.35;10.68;;;3.80;99.90;;;;;;5095651;28;20020;-73
2021/01/03 01:45:41;;;;;;;33.63;10.25;;;3.90;99.90;;;;;;5112887;28;20481;-72
2021/01/03 01:48:14;;;;;;;;;;;3.90;99.90;;;;;;5113338;28;20463;-73
2021/01/03 01:50:47;;;;;;;36.72;10.52;;;3.90;99.90;;;;;;5126851;22;19920;-73
2021/01/03 01:53:24;;;;;;;31.02;10.65;;;3.90;99.90;;;;;;5116328;28;20027;-73
2021/01/03 01:55:58;;;;;;;46.58;11.50;;;3.90;99.90;;;;;;5097891;28;20026;-72
2021/01/03 01:58:43;;;;;;;38.38;11.10;;;3.90;99.90;;;;;;5116028;28;20019;-74
2021/01/03 02:01:11;;;;;;;32.75;11.15;;;3.90;99.90;;;;;;5115962;28;20024;-72
2021/01/03 02:03:46;;;;;;;34.00;12.13;;;3.80;99.90;;;;;;5097561;28;20119;-72
2021/01/03 02:06:21;;;;;;;33.40;11.23;;;3.90;99.90;;;;;;5120177;28;20078;-73
2021/01/03 02:08:53;;;;;;;37.97;11.57;;;3.90;99.90;;;;;;5115537;28;20020;-73
2021/01/03 02:11:23;;;;;;;32.00;11.07;;;3.80;99.90;;;;;;5115141;28;20016;-73
2021/01/03 02:13:52;;;;;;;29.63;11.00;;;3.90;99.90;;;;;;5114661;28;20037;-73
2021/01/03 02:16:23;;;;;;;33.28;11.00;;;3.90;99.90;;;;;;5116014;28;20051;-74
2021/01/03 02:18:50;;;;;;;31.50;10.18;;;3.90;99.90;;;;;;5115324;28;20031;-73
2021/01/03 02:21:42;;;;;;;37.17;11.35;;;3.90;99.90;;;;;;5114789;28;20024;-73
2021/01/03 02:24:24;;;;;;;38.47;14.10;;;3.90;99.90;;;;;;5098330;28;20510;-73
2021/01/03 02:26:55;;;;;;;43.85;12.48;;;3.90;99.90;;;;;;5095984;28;20027;-73
2021/01/03 02:29:24;;;;;;;38.47;10.73;;;3.90;99.90;;;;;;5114798;28;20024;-73
2021/01/03 02:31:55;;;;;;;33.78;11.35;;;4.00;99.90;;;;;;5115066;28;20479;-73
2021/01/03 02:34:37;;;;;;;34.30;11.15;;;4.00;99.90;;;;;;5116009;28;20077;-75
2021/01/03 02:37:12;;;;;;;41.13;13.02;;;4.00;99.90;;;;;;5098183;28;20054;-75
2021/01/03 02:40:08;;;;;;;40.38;12.52;;;4.00;99.90;;;;;;5121053;28;20031;-74
2021/01/03 02:42:39;;;;;;;42.53;12.77;;;3.80;99.90;;;;;;5101634;28;20031;-75
2021/01/03 02:45:10;;;;;;;35.88;11.48;;;3.90;99.90;;;;;;5119294;28;20015;-75
2021/01/03 02:47:38;;;;;;;40.17;11.07;;;3.90;99.90;;;;;;5116013;28;20072;-72
2021/01/03 02:50:12;;;;;;;36.60;11.77;;;3.90;99.90;;;;;;5098827;28;20044;-71
2021/01/03 02:52:42;;;;;;;34.33;11.15;;;3.90;99.90;;;;;;5119576;22;20119;-72
2021/01/03 02:55:08;;;;;;;46.53;14.23;;;4.00;99.90;;;;;;5123587;28;20012;-73
2021/01/03 02:57:38;;;;;;;39.80;13.00;;;3.90;99.90;;;;;;5124020;28;20528;-72
2021/01/03 03:00:09;;;;;;;39.35;13.07;;;4.10;99.90;;;;;;5123711;28;20364;-73
2021/01/03 03:02:35;;;;;;;39.60;11.98;;;4.00;99.90;;;;;;5127490;28;20053;-75
2021/01/03 03:05:02;;;;;;;40.40;12.82;;;3.90;99.90;;;;;;5103881;28;20011;-74
2021/01/03 03:07:29;;;;;;;39.25;12.45;;;4.00;99.90;;;;;;5122600;28;20102;-72
2021/01/03 03:09:55;;;;;;;35.78;12.27;;;4.00;99.90;;;;;;5103985;28;20403;-74
2021/01/03 03:12:22;;;;;;;40.63;12.98;;;3.90;99.90;;;;;;5124372;28;20049;-72
2021/01/03 03:14:48;;;;;;;40.08;13.45;;;4.00;99.90;;;;;;5104594;28;20040;-72
2021/01/03 03:17:13;;;;;;;42.97;12.93;;;3.90;99.90;;;;;;5119471;28;20055;-73
2021/01/03 03:19:42;;;;;;;46.65;12.38;;;4.00;99.90;;;;;;5120089;28;20027;-74
2021/01/03 03:22:08;;;;;;;36.22;11.32;;;3.90;99.90;;;;;;5105455;28;20034;-74
2021/01/03 03:24:36;;;;;;;38.70;12.52;;;3.90;99.90;;;;;;5109394;28;20032;-74
2021/01/03 03:27:13;;;;;;;39.00;12.88;;;4.00;99.90;;;;;;5108106;28;20024;-75
2021/01/03 03:29:38;;;;;;;36.67;12.07;;;3.90;99.90;;;;;;5121404;28;20447;-72
2021/01/03 03:32:07;;;;;;;32.90;11.30;;;4.00;99.90;;;;;;5103030;28;20023;-74
2021/01/03 03:34:33;;;;;;;32.53;10.75;;;4.00;99.90;;;;;;5123586;28;20043;-74
2021/01/03 03:36:59;;;;;;;40.42;12.20;;;4.00;99.90;;;;;;5101853;28;20024;-73
2021/01/03 03:39:26;;;;;;;32.38;12.85;;;4.00;99.90;;;;;;5104497;28;20023;-72
2021/01/03 03:41:59;;;;;;;36.08;11.32;;;4.00;99.90;;;;;;5100197;28;20110;-76
2021/01/03 03:44:27;;;;;;;42.63;12.48;;;4.00;99.90;;;;;;5099393;28;20031;-76
2021/01/03 03:46:58;;;;;;;38.15;10.05;;;4.00;99.90;;;;;;5100650;28;20015;-74
2021/01/03 03:49:25;;;;;;;36.42;11.60;;;4.00;99.90;;;;;;5106766;28;20027;-73
2021/01/03 03:51:58;;;;;;;36.45;11.05;;;4.10;99.90;;;;;;5124081;28;20030;-74
2021/01/03 03:54:24;;;;;;;38.60;11.45;;;4.00;99.90;;;;;;5121920;28;20506;-73
2021/01/03 03:56:57;;;;;;;42.00;11.68;;;4.00;99.90;;;;;;5103174;28;20031;-73
2021/01/03 03:59:24;;;;;;;31.40;10.60;;;4.00;99.90;;;;;;5102523;28;20124;-74
2021/01/03 04:01:50;;;;;;;37.92;11.30;;;4.00;99.90;;;;;;5103451;28;20379;-73
2021/01/03 04:04:16;;;;;;;39.15;12.32;;;4.00;99.90;;;;;;5123629;28;20027;-74
2021/01/03 04:06:42;;;;;;;45.38;13.20;;;4.00;99.90;;;;;;5106732;28;20548;-73
2021/01/03 04:09:08;;;;;;;44.88;12.30;;;3.90;99.90;;;;;;5107866;28;20024;-73
2021/01/03 04:11:39;;;;;;;37.13;12.77;;;3.90;99.90;;;;;;5127175;28;20028;-73
2021/01/03 04:14:11;;;;;;;40.97;11.25;;;3.90;99.90;;;;;;5106620;28;20023;-74
2021/01/03 04:16:52;;;;;;;43.85;12.30;;;4.50;99.90;;;;;;5124250;28;20016;-73
2021/01/03 04:19:20;;;;;;;41.45;11.57;;;3.90;99.90;;;;;;5107180;28;20019;-73
2021/01/03 04:22:00;;;;;;;44.15;11.27;;;3.90;99.90;;;;;;5126493;28;20087;-73
2021/01/03 04:24:27;;;;;;;38.35;11.75;;;3.90;99.90;;;;;;5087635;28;20027;-74
2021/01/03 04:26:55;;;;;;;47.20;13.77;;;3.90;99.90;;;;;;5103390;28;20012;-72
2021/01/03 04:29:21;;;;;;;39.40;12.40;;;3.90;99.90;;;;;;5102448;28;20065;-73
2021/01/03 04:31:52;;;;;;;35.75;9.85;;;3.90;99.90;;;;;;5102910;28;20306;-73
2021/01/03 04:34:18;;;;;;;39.80;12.30;;;3.90;99.90;;;;;;5103657;28;20034;-74
2021/01/03 04:36:48;;;;;;;37.60;10.70;;;3.90;99.90;;;;;;5122191;28;20090;-72
2021/01/03 04:39:13;;;;;;;35.80;12.13;;;3.90;99.90;;;;;;5105903;28;20053;-73
2021/01/03 04:41:45;;;;;;;42.67;14.40;;;3.90;99.90;;;;;;5106253;28;20024;-73
2021/01/03 04:44:21;;;;;;;33.97;10.55;;;3.80;99.90;;;;;;5119795;28;20392;-73
2021/01/03 04:46:49;;;;;;;40.42;11.18;;;3.90;99.90;;;;;;5119822;28;20016;-74
2021/01/03 04:49:26;;;;;;;36.28;11.52;;;3.90;99.90;;;;;;5099997;28;20047;-74
2021/01/03 04:52:18;;;;;;;36.67;12.30;;;3.80;99.90;;;;;;5100440;28;20030;-73
2021/01/03 04:55:05;;;;;;;38.50;10.73;;;3.80;99.90;;;;;;5123090;28;20106;-72
2021/01/03 04:58:02;;;;;;;37.88;11.63;;;3.80;99.90;;;;;;5135009;22;20111;-72
2021/01/03 05:00:35;;;;;;;30.02;10.50;;;3.80;99.90;;;;;;5097297;28;20040;-73
2021/01/03 05:03:19;;;;;;;28.95;10.90;;;3.90;99.90;;;;;;5115844;22;20070;-74
2021/01/03 05:05:53;;;;;;;33.25;11.02;;;3.90;99.90;;;;;;5084107;28;20030;-73
2021/01/03 05:08:41;;;;;;;30.23;10.90;;;3.80;99.90;;;;;;5069171;28;20070;-73
2021/01/03 05:11:42;;;;;;;31.42;9.95;;;3.80;99.90;;;;;;5099765;28;20020;-72
2021/01/03 05:14:35;;;;;;;33.38;10.30;;;3.80;99.90;;;;;;5103111;28;20430;-73
2021/01/03 05:17:01;;;;;;;32.05;10.45;;;3.80;99.90;;;;;;5083740;28;20024;-72
2021/01/03 05:19:26;;;;;;;32.25;11.20;;;3.80;99.90;;;;;;5081087;28;20503;-73
2021/01/03 05:21:54;;;;;;;31.20;9.82;;;3.80;99.90;;;;;;5080924;28;20027;-73
2021/01/03 05:24:24;;;;;;;27.73;9.93;;;3.70;99.90;;;;;;5098762;28;20379;-74
2021/01/03 05:26:49;;;;;;;30.00;10.98;;;3.70;99.90;;;;;;5096631;28;20166;-74
2021/01/03 05:29:28;;;;;;;32.95;9.75;;;3.70;99.90;;;;;;5077340;28;20105;-72
2021/01/03 05:32:00;;;;;;;38.05;11.25;;;3.70;99.90;;;;;;5076518;28;20024;-74
2021/01/03 05:34:36;;;;;;;29.98;10.13;;;3.70;99.90;;;;;;5096672;28;20082;-72
2021/01/03 05:37:25;;;;;;;35.38;11.98;;;3.50;99.90;;;;;;5079321;28;20085;-75
2021/01/03 05:39:51;;;;;;;32.30;10.77;;;3.70;99.90;;;;;;5077977;28;20012;-73
2021/01/03 05:42:31;;;;;;;36.60;10.93;;;3.70;99.90;;;;;;5097469;28;20123;-73
2021/01/03 05:45:03;;;;;;;33.28;11.40;;;3.70;99.90;;;;;;5104226;28;20099;-73
2021/01/03 05:47:35;;;;;;;38.97;11.38;;;3.70;99.90;;;;;;5084731;28;20536;-74
2021/01/03 05:50:29;;;;;;;29.70;10.63;;;3.70;99.90;;;;;;5084044;28;20016;-73
2021/01/03 05:53:00;;;;;;;32.58;10.60;;;3.70;99.90;;;;;;5100057;28;20040;-73
2021/01/03 05:55:35;;;;;;;34.72;10.93;;;3.70;99.90;;;;;;5100550;22;20032;-73
2021/01/03 05:58:07;;;;;;;32.90;10.63;;;3.70;99.90;;;;;;5104947;28;20028;-74
2021/01/03 06:00:35;;;;;;;33.13;11.23;;;3.70;99.90;;;;;;5103633;28;20043;-72
2021/01/03 06:03:12;;;;;;;31.88;11.50;;;3.60;99.90;;;;;;5104867;28;20053;-73
2021/01/03 06:05:48;;;;;;;35.30;11.77;;;3.60;99.90;;;;;;5124098;28;20024;-73
2021/01/03 06:08:22;;;;;;;38.38;11.60;;;3.70;99.90;;;;;;5124821;28;20016;-74
2021/01/03 06:10:48;;;;;;;35.33;11.73;;;3.60;99.90;;;;;;5105817;28;20019;-72
2021/01/03 06:13:22;;;;;;;37.35;11.75;;;3.60;99.90;;;;;;5123524;28;20023;-73
2021/01/03 06:15:57;;;;;;;40.30;10.90;;;3.60;99.90;;;;;;5124222;28;20452;-73
2021/01/03 06:18:48;;;;;;;35.28;11.00;;;3.60;99.90;;;;;;5107057;28;20020;-73
2021/01/03 06:21:28;;;;;;;35.20;10.68;;;3.60;99.90;;;;;;5097195;28;20047;-73
2021/01/03 06:24:13;;;;;;;34.65;12.23;;;3.60;99.90;;;;;;5117628;28;20030;-75
2021/01/03 06:26:44;;;;;;;38.63;10.88;;;3.60;99.90;;;;;;5116213;28;20019;-74
2021/01/03 06:29:25;;;;;;;35.58;11.70;;;3.60;99.90;;;;;;5115455;28;20483;-74
2021/01/03 06:32:26;;;;;;;38.05;12.43;;;3.60;99.90;;;;;;5116698;28;20020;-74
2021/01/03 06:34:59;;;;;;;39.97;11.85;;;3.60;99.90;;;;;;5113648;28;20016;-72
2021/01/03 06:37:49;;;;;;;37.78;12.75;;;3.60;99.90;;;;;;5116664;28;20023;-73
2021/01/03 06:40:27;;;;;;;35.45;12.30;;;3.60;99.90;;;;;;5114827;28;20108;-74
2021/01/03 06:43:11;;;;;;;43.90;12.88;;;3.60;99.90;;;;;;5096256;28;20023;-73
2021/01/03 06:45:55;;;;;;;43.65;13.05;;;3.60;99.90;;;;;;5116170;28;20024;-74
2021/01/03 06:48:45;;;;;;;46.08;14.02;;;3.60;99.90;;;;;;5115743;28;20027;-72
2021/01/03 06:51:36;;;;;;;45.92;13.90;;;3.50;99.90;;;;;;5117086;28;20066;-74
2021/01/03 06:54:20;;;;;;;40.63;14.10;;;3.60;99.90;;;;;;5114766;28;20106;-72
2021/01/03 06:57:16;;;;;;;42.63;13.50;;;3.60;99.90;;;;;;5096187;28;20067;-73
2021/01/03 07:00:14;;;;;;;42.45;13.20;;;3.50;99.90;;;;;;5096356;28;20476;-72
2021/01/03 07:02:47;;;;;;;44.40;14.18;;;3.50;99.90;;;;;;5096186;28;20031;-73
2021/01/03 07:05:13;;;;;;;45.05;14.18;;;3.50;99.90;;;;;;5114806;28;20019;-72
2021/01/03 07:07:42;;;;;;;47.05;14.07;;;3.50;99.90;;;;;;5114935;28;20064;-74
2021/01/03 07:10:09;;;;;;;;;;;3.50;99.90;;;;;;5116975;28;20099;-73
2021/01/03 07:12:35;;;;;;;42.63;13.05;;;3.60;99.90;;;;;;5103345;28;19903;-75
2021/01/03 07:15:01;;;;;;;54.78;16.83;;;3.50;99.90;;;;;;5099700;28;20030;-74
2021/01/03 07:17:55;;;;;;;45.28;14.77;;;3.50;99.90;;;;;;5099650;28;20027;-75
2021/01/03 07:20:57;;;;;;;39.97;13.73;;;3.50;99.90;;;;;;5116228;28;20109;-72
2021/01/03 07:23:38;;;;;;;44.85;13.75;;;3.50;99.90;;;;;;5103596;28;20479;-73
2021/01/03 07:26:25;;;;;;;45.40;13.65;;;3.50;99.90;;;;;;5105807;28;20110;-73
2021/01/03 07:29:14;;;;;;;47.05;14.35;;;3.50;99.90;;;;;;5119029;28;20027;-73
2021/01/03 07:31:49;;;;;;;51.38;13.88;;;3.50;99.90;;;;;;5098544;28;20356;-72
2021/01/03 07:34:22;;;;;;;43.78;13.27;;;3.50;99.90;;;;;;5099003;28;20011;-73
2021/01/03 07:36:52;;;;;;;50.22;14.02;;;3.50;99.90;;;;;;5101850;28;20106;-74
2021/01/03 07:39:27;;;;;;;43.85;15.35;;;3.50;99.90;;;;;;5104423;28;20027;-74
2021/01/03 07:42:20;;;;;;;43.45;12.68;;;3.60;99.90;;;;;;5122403;28;20046;-73
2021/01/03 07:44:47;;;;;;;47.35;14.82;;;3.50;99.90;;;;;;5102078;28;20037;-76
2021/01/03 07:47:36;;;;;;;42.55;14.77;;;3.50;99.90;;;;;;5105786;28;20104;-72
2021/01/03 07:50:17;;;;;;;47.50;14.43;;;3.50;99.90;;;;;;5104907;28;20028;-73
2021/01/03 07:53:23;;;;;;;47.47;14.38;;;3.50;99.90;;;;;;5122398;28;20019;-73
2021/01/03 07:55:53;;;;;;;45.15;14.35;;;3.50;99.90;;;;;;5124303;28;20032;-73
2021/01/03 07:58:22;;;;;;;43.67;14.45;;;3.50;99.90;;;;;;5124970;28;20145;-75
2021/01/03 08:00:57;;;;;;;47.13;14.85;;;3.50;99.90;;;;;;5122255;28;20078;-72
2021/01/03 08:03:26;;;;;;;47.15;15.75;;;3.50;99.90;;;;;;5126630;28;20463;-73
2021/01/03 08:06:13;;;;;;;54.90;16.13;;;3.50;99.90;;;;;;5101423;28;20035;-75
2021/01/03 08:08:39;;;;;;;50.63;15.73;;;3.60;99.90;;;;;;5101643;28;20031;-74
2021/01/03 08:11:15;;;;;;;47.60;13.90;;;3.50;99.90;;;;;;5120832;28;20016;-75
2021/01/03 08:13:47;;;;;;;48.67;15.32;;;3.50;99.90;;;;;;5102632;28;20026;-75
2021/01/03 08:16:20;;;;;;;44.58;14.02;;;3.50;99.90;;;;;;5118570;28;20055;-75
2021/01/03 08:18:58;;;;;;;45.92;14.80;;;3.50;99.90;;;;;;5100622;28;20024;-74
2021/01/03 08:21:23;;;;;;;57.50;14.82;;;3.50;99.90;;;;;;5118993;28;20024;-74
2021/01/03 08:23:49;;;;;;;53.75;15.07;;;3.50;99.90;;;;;;5101682;28;20024;-74
2021/01/03 08:26:18;;;;;;;48.72;16.05;;;3.40;99.90;;;;;;5101269;28;20027;-74
2021/01/03 08:29:01;;;;;;;46.05;14.38;;;3.60;99.90;;;;;;5119503;28;20019;-73
2021/01/03 08:31:41;;;;;;;52.70;14.57;;;3.50;99.90;;;;;;5102343;28;20069;-74
2021/01/03 08:34:07;;;;;;;50.67;14.88;;;3.50;99.90;;;;;;5102065;28;20024;-74
2021/01/03 08:36:35;;;;;;;50.08;15.27;;;3.50;99.90;;;;;;5119480;28;20026;-73
2021/01/03 08:39:07;;;;;;;50.33;15.27;;;3.50;99.90;;;;;;5119058;28;20020;-74
2021/01/03 08:41:39;;;;;;;47.00;14.25;;;3.50;99.90;;;;;;5121819;28;20032;-75
2021/01/03 08:44:05;;;;;;;41.38;15.05;;;3.60;99.90;;;;;;5100330;28;20540;-74
2021/01/03 08:46:33;;;;;;;49.25;15.68;;;3.60;99.90;;;;;;5120081;28;20055;-74
2021/01/03 08:49:10;;;;;;;49.72;15.68;;;3.60;99.90;;;;;;5119346;28;20468;-74
2021/01/03 08:51:37;;;;;;;45.25;14.30;;;3.60;99.90;;;;;;5101879;28;20023;-73
2021/01/03 08:54:06;;;;;;;42.70;15.20;;;3.60;99.90;;;;;;5101969;28;20024;-75
2021/01/03 08:56:37;;;;;;;45.83;15.20;;;3.70;99.90;;;;;;5100488;28;20564;-74
2021/01/03 08:59:03;;;;;;;46.80;15.55;;;3.60;99.90;;;;;;5100585;28;20024;-73
2021/01/03 09:01:34;;;;;;;48.45;15.13;;;3.60;99.90;;;;;;5100325;28;20023;-73
2021/01/03 09:04:11;;;;;;;48.75;16.17;;;6.50;99.90;;;;;;5100676;28;20034;-75
2021/01/03 09:06:37;;;;;;;42.92;15.88;;;3.70;99.90;;;;;;5119498;28;20398;-73
2021/01/03 09:09:15;;;;;;;44.63;15.15;;;3.70;99.90;;;;;;5102453;28;20072;-74
2021/01/03 09:11:58;;;;;;;45.70;14.43;;;3.70;99.90;;;;;;5101498;28;20095;-73
2021/01/03 09:14:36;;;;;;;47.22;14.50;;;3.70;99.90;;;;;;5102359;28;20111;-76
2021/01/03 09:17:17;;;;;;;42.15;16.02;;;3.70;99.90;;;;;;5120226;28;20012;-72
2021/01/03 09:20:11;;;;;;;47.67;15.70;;;3.80;99.90;;;;;;5102081;28;20081;-73
2021/01/03 09:22:44;;;;;;;43.45;15.63;;;3.80;99.90;;;;;;5117667;28;20020;-75
2021/01/03 09:25:13;;;;;;;43.83;13.88;;;3.80;99.90;;;;;;5118646;28;20020;-73
2021/01/03 09:27:39;;;;;;;;;;;3.90;99.90;;;;;;5099797;28;20016;-73
2021/01/03 09:30:11;;;;;;;38.97;13.93;;;3.90;99.90;;;;;;5099480;28;19904;-73
2021/01/03 09:32:39;;;;;;;46.00;14.90;;;4.00;99.90;;;;;;5099965;28;20024;-72
2021/01/03 09:35:28;;;;;;;48.92;15.30;;;4.00;99.90;;;;;;5099349;28;20045;-73
2021/01/03 09:38:29;;;;;;;43.55;14.40;;;4.00;99.90;;;;;;5101588;28;20020;-73
2021/01/03 09:41:32;;;;;;;38.97;13.63;;;4.10;99.90;;;;;;5100837;28;20489;-73
2021/01/03 09:44:24;;;;;;;42.25;14.18;;;4.10;99.90;;;;;;5120695;28;20494;-74
2021/01/03 09:47:04;;;;;;;43.45;13.88;;;4.10;99.90;;;;;;5121267;28;20560;-75
2021/01/03 09:49:36;;;;;;;37.95;13.32;;;4.20;99.90;;;;;;5102441;28;20418;-75
2021/01/03 09:52:24;;;;;;;43.58;14.57;;;4.20;99.90;;;;;;5119725;28;20030;-76
2021/01/03 09:55:02;;;;;;;34.92;11.85;;;4.20;99.90;;;;;;5101323;28;20080;-75
2021/01/03 09:57:46;;;;;;;36.03;12.40;;;4.20;99.90;;;;;;5101258;28;20024;-73
2021/01/03 10:00:15;;;;;;;39.25;11.80;;;4.30;99.90;;;;;;5117799;28;20072;-75
2021/01/03 10:02:44;;;;;;;30.95;11.55;;;4.30;99.90;;;;;;5100349;28;20027;-74
2021/01/03 10:05:27;;;;;;;32.70;10.00;;;4.20;99.90;;;;;;5100957;28;20507;-73
2021/01/03 10:08:02;;;;;;;30.52;10.57;;;4.30;99.90;;;;;;5102107;28;20027;-74
2021/01/03 10:10:51;;;;;;;27.27;10.43;;;4.30;99.90;;;;;;5117898;28;20019;-74
2021/01/03 10:13:22;;;;;;;26.02;10.02;;;4.20;99.90;;;;;;5098484;28;20483;-75
2021/01/03 10:15:49;;;;;;;27.25;8.45;;;4.20;99.90;;;;;;5099056;28;20030;-74
2021/01/03 10:18:46;;;;;;;25.88;9.32;;;4.20;99.90;;;;;;5117338;28;20047;-74
2021/01/03 10:21:38;;;;;;;28.30;9.48;;;4.10;99.90;;;;;;5096743;28;20046;-74
2021/01/03 10:24:25;;;;;;;22.20;8.65;;;4.10;99.90;;;;;;5097527;28;20433;-76
2021/01/03 10:27:03;;;;;;;21.83;7.32;;;4.10;99.90;;;;;;5099305;28;20033;-75
2021/01/03 10:29:29;;;;;;;20.90;6.97;;;4.10;99.90;;;;;;5098108;28;20023;-75
2021/01/03 10:31:55;;;;;;;20.55;7.70;;;4.10;99.90;;;;;;5116094;28;20020;-74
2021/01/03 10:34:22;;;;;;;21.83;8.23;;;4.10;99.90;;;;;;5116368;28;20065;-77
2021/01/03 10:36:48;;;;;;;19.95;7.55;;;4.10;99.90;;;;;;5115950;28;20055;-74
2021/01/03 10:39:16;;;;;;;18.17;7.05;;;4.00;99.90;;;;;;5097713;22;20040;-76
2021/01/03 10:41:42;;;;;;;19.70;7.72;;;4.00;99.90;;;;;;5079525;28;20017;-75
2021/01/03 10:44:11;;;;;;;20.13;7.38;;;4.00;99.90;;;;;;5096706;28;20384;-75
2021/01/03 10:46:42;;;;;;;16.67;6.05;;;4.00;99.90;;;;;;5080017;28;20028;-76
2021/01/03 10:49:12;;;;;;;16.65;6.07;;;4.00;99.90;;;;;;5096628;28;20020;-76
2021/01/03 10:51:39;;;;;;;;;;;4.00;99.90;;;;;;5096599;28;20107;-76
2021/01/03 10:54:12;;;;;;;15.40;5.25;;;4.10;99.90;;;;;;5096221;28;20284;-75
2021/01/03 10:56:38;;;;;;;15.18;5.88;;;4.00;99.90;;;;;;5095511;28;20054;-76
2021/01/03 10:59:05;;;;;;;13.75;5.22;;;4.00;99.90;;;;;;5077443;28;20024;-75
2021/01/03 11:01:31;;;;;;;19.00;5.28;;;4.10;99.90;;;;;;5117713;22;20154;-77
2021/01/03 11:04:09;;;;;;;13.27;5.47;;;4.00;99.90;;;;;;5097484;28;20023;-76
2021/01/03 11:06:43;;;;;;;15.70;5.40;;;4.10;99.90;;;;;;5099158;28;20486;-74
2021/01/03 11:09:15;;;;;;;11.50;4.47;;;4.70;99.90;;;;;;5098602;28;20023;-74
2021/01/03 11:11:41;;;;;;;12.80;5.38;;;4.00;99.90;;;;;;5100951;28;20467;-76
2021/01/03 11:14:07;;;;;;;14.70;5.80;;;4.10;99.90;;;;;;5122062;28;20034;-74
2021/01/03 11:16:35;;;;;;;18.23;6.65;;;5.40;99.90;;;;;;5122102;28;20031;-75
2021/01/03 11:19:00;;;;;;;19.10;6.37;;;4.10;99.90;;;;;;5102632;28;20036;-74
2021/01/03 11:21:26;;;;;;;16.63;5.90;;;4.10;99.90;;;;;;5101769;28;20039;-76
2021/01/03 11:23:52;;;;;;;16.48;6.78;;;4.10;99.90;;;;;;5121988;28;20024;-74
2021/01/03 11:26:26;;;;;;;19.27;7.05;;;4.10;99.90;;;;;;5070452;22;20049;-76
2021/01/03 11:28:52;;;;;;;20.40;6.88;;;4.20;99.90;;;;;;5060774;28;20168;-74
2021/01/03 11:31:17;;;;;;;16.90;7.50;;;4.20;99.90;;;;;;5042192;28;20128;-74
2021/01/03 11:33:43;;;;;;;17.95;6.38;;;4.10;99.90;;;;;;5041554;28;20099;-75
2021/01/03 11:36:10;;;;;;;18.42;7.13;;;4.10;99.90;;;;;;5042084;28;20029;-74
2021/01/03 11:38:36;;;;;;;20.60;6.82;;;4.10;99.90;;;;;;5041779;28;20068;-74
2021/01/03 11:41:02;;;;;;;19.48;7.43;;;4.10;99.90;;;;;;5059601;28;20021;-75
2021/01/03 11:43:27;;;;;;;19.60;6.68;;;4.10;99.90;;;;;;5060767;28;20069;-76
2021/01/03 11:45:56;;;;;;;16.85;6.78;;;4.10;99.90;;;;;;5060937;28;20074;-77
2021/01/03 11:48:23;;;;;;;16.75;5.57;;;4.00;99.90;;;;;;5079281;28;20020;-74
2021/01/03 11:50:49;;;;;;;16.35;5.20;;;4.10;99.90;;;;;;5078884;28;20252;-77
2021/01/03 11:53:15;;;;;;;15.23;6.50;;;4.10;99.90;;;;;;5076625;28;20017;-74
2021/01/03 11:55:40;;;;;;;15.52;5.63;;;4.10;99.90;;;;;;5052139;28;20034;-74
2021/01/03 11:58:09;;;;;;;12.05;5.55;;;4.10;99.90;;;;;;5057885;28;20051;-74
2021/01/03 12:00:34;;;;;;;12.77;5.03;;;4.20;99.90;;;;;;5058535;28;20091;-74
2021/01/03 12:03:00;;;;;;;12.73;4.70;;;4.10;99.90;;;;;;5041918;28;20025;-76
2021/01/03 12:05:25;;;;;;;14.48;5.32;;;4.10;99.90;;;;;;5059239;28;20013;-74
2021/01/03 12:07:51;;;;;;;15.27;5.45;;;4.20;99.90;;;;;;5068212;28;20029;-74
2021/01/03 12:10:17;;;;;;;14.65;5.57;;;4.20;99.90;;;;;;5076638;28;20098;-75
2021/01/03 12:12:42;;;;;;;14.32;5.65;;;4.20;99.90;;;;;;5057871;28;20151;-75
2021/01/03 12:15:09;;;;;;;16.67;6.53;;;4.30;99.90;;;;;;5046448;28;20396;-74
2021/01/03 12:17:34;;;;;;;15.82;5.25;;;4.30;99.90;;;;;;5060964;28;20027;-75
2021/01/03 12:20:04;;;;;;;17.25;6.25;;;4.40;99.90;;;;;;5079208;28;20040;-76
2021/01/03 12:22:32;;;;;;;14.05;5.28;;;4.40;99.90;;;;;;5077499;28;20056;-76
2021/01/03 12:24:58;;;;;;;17.08;5.50;;;4.40;99.90;;;;;;5060517;28;20025;-74
2021/01/03 12:27:26;;;;;;;17.10;6.72;;;4.50;99.90;;;;;;5078863;28;20021;-76
2021/01/03 12:29:52;;;;;;;15.13;5.70;;;4.50;99.90;;;;;;5060783;28;20031;-76
2021/01/03 12:32:17;;;;;;;20.05;5.78;;;4.60;99.90;;;;;;5048768;28;20025;-75
2021/01/03 12:34:43;;;;;;;15.60;5.65;;;4.60;99.90;;;;;;5040924;28;20444;-74
2021/01/03 12:37:12;;;;;;;13.45;5.43;;;4.60;99.90;;;;;;5058787;28;20104;-74
2021/01/03 12:39:40;;;;;;;;;;;4.60;99.90;;;;;;5094165;22;20040;-75
2021/01/03 12:42:07;;;;;;;13.73;5.57;;;5.40;99.90;;;;;;5077055;28;20391;-74
2021/01/03 12:44:36;;;;;;;14.93;5.72;;;4.60;99.90;;;;;;5061322;28;20047;-75
2021/01/03 12:47:03;;;;;;;14.20;5.47;;;4.60;99.90;;;;;;5060784;28;20017;-75
2021/01/03 12:49:30;;;;;;;13.45;4.88;;;4.70;99.90;;;;;;5061594;28;20024;-76
2021/01/03 12:51:58;;;;;;;12.70;5.10;;;4.70;99.90;;;;;;5060727;28;20021;-76
2021/01/03 12:54:24;;;;;;;13.68;4.45;;;4.70;99.90;;;;;;5060783;28;20021;-75
2021/01/03 12:56:50;;;;;;;14.50;5.20;;;4.80;99.90;;;;;;5059417;28;20036;-77
2021/01/03 12:59:17;;;;;;;11.43;4.30;;;4.70;99.90;;;;;;5078431;28;20031;-75
2021/01/03 13:01:43;;;;;;;13.55;4.72;;;4.70;99.90;;;;;;5059713;28;20404;-77
2021/01/03 13:04:11;;;;;;;14.27;5.53;;;4.80;99.90;;;;;;5060161;28;20032;-77
2021/01/03 13:06:38;;;;;;;11.90;4.13;;;4.80;99.90;;;;;;5089201;28;20032;-76